Saint-Sylvestre, Canada
Current Conditions -  °F | °C
As of 11:00 AM on Wednesday 28 Jan 2015 (Local Time) from CYQB Reporting Station
Scattered Clouds Scattered Clouds  
Wind Chill: -2°   Ceiling: Unl
Heat Index: 10°   Visibility: 30mi
Dew Point:   Wind: 9mph
Humidity: 62%   Direction: 220°SW
Pressure: 30.06"   Gusts: NA
Location:  46.37°N, 71.23°W
Report Text: CYQB 281600Z 22008KT 30SM SCT110 SCT240 M12/M18 A3006 RMK AC4CI1 CI TR SLP187
Loading
Personal Weather Stations






























Interactive Weather Map New forecast layout! Learn more

10-Day Weather Forecast

Advertisements
Track Severe Weather on mobile